Time;durP1;ratioP1;P1;durP2;ratioP2;P2;SDS_P1;SDS_P2;PMS_P1;PMS_P2;Temp;Humidity;BMP_temperature;BMP_pressure;BME280_temperature;BME280_humidity;BME280_pressure;Samples;Min_cycle;Max_cycle;Signal;HPM_P1;HPM_P2
2022/03/18 00:01:47;;;;;;;57.05;16.95;;;;;;;4.83;54.41;102691.73;713968;1174;114737;-73
2022/03/18 00:16:50;;;;;;;63.43;16.60;;;;;;;4.69;53.72;102700.78;713385;1175;115902;-74
2022/03/18 00:31:53;;;;;;;78.75;18.18;;;;;;;4.52;53.85;102689.03;713430;1174;114731;-73
2022/03/18 00:46:55;;;;;;;26.15;9.60;;;;;;;4.45;53.63;102705.69;713199;1175;115653;-76
2022/03/18 01:01:58;;;;;;;27.25;9.25;;;;;;;4.35;53.97;102709.38;713066;1177;115586;-73
2022/03/18 01:17:00;;;;;;;29.20;11.25;;;;;;;4.10;53.50;102723.77;712962;1175;114145;-73
2022/03/18 01:32:03;;;;;;;65.35;20.25;;;;;;;3.77;53.76;102718.40;713013;1176;114937;-75
2022/03/18 01:47:05;;;;;;;46.95;14.85;;;;;;;3.69;54.31;102717.70;713372;1176;114957;-73
2022/03/18 02:02:08;;;;;;;26.28;11.10;;;;;;;3.69;54.91;102728.09;713210;1174;115124;-78
2022/03/18 02:17:13;;;;;;;24.95;10.88;;;;;;;3.65;54.10;102742.87;713139;1175;115628;-73
2022/03/18 02:32:18;;;;;;;19.48;8.68;;;;;;;3.56;53.63;102752.59;713196;1177;114768;-73
2022/03/18 02:47:21;;;;;;;19.13;9.15;;;;;;;3.48;54.42;102773.49;712934;1177;115655;-73
2022/03/18 03:02:23;;;;;;;19.43;9.13;;;;;;;3.43;53.70;102796.95;712954;1176;115513;-73
2022/03/18 03:17:25;;;;;;;20.05;9.40;;;;;;;3.30;54.11;102798.05;712947;1175;114826;-72
2022/03/18 03:32:27;;;;;;;30.80;11.33;;;;;;;3.13;54.23;102812.15;713144;1177;115220;-73
2022/03/18 03:47:29;;;;;;;17.40;9.13;;;;;;;3.04;54.13;102821.83;713155;1174;114881;-73
2022/03/18 04:02:33;;;;;;;21.13;9.00;;;;;;;3.08;54.34;102841.65;713136;1176;114795;-73
2022/03/18 04:17:39;;;;;;;18.03;8.97;;;;;;;3.01;53.73;102853.86;713186;1174;114825;-74
2022/03/18 04:32:42;;;;;;;17.25;8.93;;;;;;;2.87;54.70;102874.79;713358;1177;115382;-74
2022/03/18 04:47:44;;;;;;;18.20;9.03;;;;;;;2.89;54.16;102885.14;713363;1175;115079;-74
2022/03/18 05:02:47;;;;;;;296.25;96.13;;;;;;;3.00;54.87;102904.01;713185;1177;115234;-72
2022/03/18 05:17:52;;;;;;;99.40;26.55;;;;;;;3.03;54.55;102916.92;713212;1177;115693;-74
2022/03/18 05:32:54;;;;;;;36.15;15.60;;;;;;;3.13;54.75;102928.04;713418;1176;115008;-73
2022/03/18 05:47:56;;;;;;;68.75;21.45;;;;;;;3.49;54.62;102947.36;713497;1177;114685;-74
2022/03/18 06:03:00;;;;;;;188.88;61.30;;;;;;;3.96;53.59;102970.84;713676;1177;114723;-73
2022/03/18 06:18:02;;;;;;;27.00;14.70;;;;;;;4.63;53.26;102988.67;713263;1176;115615;-74
2022/03/18 06:33:05;;;;;;;20.10;10.88;;;;;;;5.85;52.05;102995.50;713561;1176;115585;-80
2022/03/18 06:48:07;;;;;;;17.43;10.63;;;;;;;6.91;49.29;102998.78;713811;1176;115171;-79
2022/03/18 07:03:09;;;;;;;15.43;9.07;;;;;;;7.54;47.24;103019.52;713724;1177;115044;-81
2022/03/18 07:18:14;;;;;;;15.83;9.40;;;;;;;8.28;45.33;103030.98;714202;1175;114902;-73
2022/03/18 07:33:17;;;;;;;17.00;8.58;;;;;;;9.02;44.50;103024.88;714023;1175;114396;-81
2022/03/18 07:48:22;;;;;;;15.33;7.77;;;;;;;9.95;43.03;103031.69;715050;1177;114037;-80
2022/03/18 08:03:25;;;;;;;11.90;7.33;;;;;;;10.30;40.49;103037.22;714013;1175;114293;-80
2022/03/18 08:18:27;;;;;;;10.60;7.33;;;;;;;11.20;38.80;103049.00;714127;1177;114198;-78
2022/03/18 08:33:31;;;;;;;11.20;6.83;;;;;;;11.78;38.21;103066.38;713767;1177;115252;-78
2022/03/18 08:48:33;;;;;;;29.35;10.38;;;;;;;11.94;37.42;103055.95;713938;1174;114597;-75
2022/03/18 09:03:37;;;;;;;13.48;8.85;;;;;;;12.49;36.90;103071.59;713541;1176;115285;-75
2022/03/18 09:18:40;;;;;;;21.27;7.37;;;;;;;12.20;35.27;103077.52;714041;1177;114543;-77
2022/03/18 09:33:43;;;;;;;16.30;11.53;;;;;;;12.95;35.84;103091.17;714348;1175;115314;-77
2022/03/18 09:48:46;;;;;;;12.10;7.00;;;;;;;12.75;34.54;103090.45;714841;1176;115582;-78
2022/03/18 10:03:48;;;;;;;12.20;6.93;;;;;;;13.40;35.23;103086.98;713944;1175;114516;-79
2022/03/18 10:18:50;;;;;;;12.30;6.10;;;;;;;13.84;33.55;103105.66;713975;1175;115675;-79
2022/03/18 10:49:27;;;;;;;8.63;5.70;;;;;;;14.18;34.27;103106.34;715293;1177;115105;-79
2022/03/18 11:04:30;;;;;;;9.13;5.37;;;;;;;15.05;33.28;103110.78;714064;1176;114946;-80
2022/03/18 11:19:34;;;;;;;18.08;9.03;;;;;;;15.74;32.80;103102.02;715847;1176;115122;-79
2022/03/18 11:34:50;;;;;;;11.48;5.68;;;;;;;15.83;32.43;103104.09;715784;1175;114503;-78
2022/03/18 11:49:54;;;;;;;8.50;5.75;;;;;;;16.21;32.04;103121.03;723038;1175;114747;-78
2022/03/18 12:04:58;;;;;;;10.03;6.20;;;;;;;16.41;31.80;103117.86;714367;1177;114275;-78
2022/03/18 12:20:01;;;;;;;18.75;8.05;;;;;;;16.89;31.92;103103.98;716984;1177;115197;-77
2022/03/18 12:35:04;;;;;;;30.00;11.10;;;;;;;16.42;31.83;103085.13;715504;1177;114613;-77
2022/03/18 12:50:07;;;;;;;39.38;14.83;;;;;;;17.36;32.08;103079.48;713361;1175;114606;-78
2022/03/18 13:05:15;;;;;;;12.07;7.40;;;;;;;18.04;31.94;103080.64;713768;1177;115419;-77
2022/03/18 13:20:25;;;;;;;17.30;10.30;;;;;;;19.08;31.75;103062.83;713893;1177;116208;-76
2022/03/18 13:35:27;;;;;;;;;;;;;;;18.11;30.28;103071.23;714230;1175;115990;-78
2022/03/18 13:50:48;;;;;;;19.37;9.50;;;;;;;21.20;30.81;103057.38;714036;1175;101801;-77
2022/03/18 14:05:58;;;;;;;17.65;7.33;;;;;;;23.73;29.66;103035.97;714031;1174;114821;-77
2022/03/18 14:21:02;;;;;;;31.48;12.78;;;;;;;21.80;29.82;103037.72;713842;1174;116038;-77
2022/03/18 14:36:05;;;;;;;25.43;11.93;;;;;;;22.81;29.33;103037.10;713827;1176;115519;-78
2022/03/18 14:51:07;;;;;;;38.75;15.55;;;;;;;20.80;28.97;103031.59;713662;1174;115458;-78
2022/03/18 15:06:09;;;;;;;58.33;28.30;;;;;;;18.78;30.57;103035.03;714946;1177;115402;-78
2022/03/18 15:21:12;;;;;;;14.93;8.73;;;;;;;17.38;31.03;103021.83;714811;1177;115021;-77
2022/03/18 15:36:14;;;;;;;71.20;38.55;;;;;;;16.62;31.84;103020.13;713734;1177;114521;-76
2022/03/18 15:51:17;;;;;;;117.37;59.77;;;;;;;15.96;32.61;103016.77;713633;1177;115188;-76
2022/03/18 16:06:20;;;;;;;41.57;23.03;;;;;;;15.52;32.95;103039.07;714091;1177;116150;-76
2022/03/18 16:21:23;;;;;;;302.10;116.67;;;;;;;14.23;33.99;103049.69;713917;1177;114887;-76
2022/03/18 16:36:26;;;;;;;71.13;29.80;;;;;;;13.54;35.26;103072.16;714232;1175;115868;-76
2022/03/18 16:51:28;;;;;;;542.85;226.70;;;;;;;12.15;35.81;103080.37;713440;1177;116258;-76
2022/03/18 17:06:30;;;;;;;64.70;28.70;;;;;;;11.00;36.24;103079.67;713620;1177;116447;-76
2022/03/18 17:21:37;;;;;;;843.23;289.63;;;;;;;10.10;37.93;103085.29;715326;1177;115255;-80
2022/03/18 17:36:40;;;;;;;219.70;76.87;;;;;;;9.37;38.29;103084.68;713409;1175;116327;-75
2022/03/18 17:51:45;;;;;;;117.28;42.58;;;;;;;8.77;39.85;103098.23;713719;1176;114534;-75
2022/03/18 18:06:48;;;;;;;227.10;75.77;;;;;;;7.96;40.53;103094.83;713361;1174;115733;-75
2022/03/18 18:21:58;;;;;;;284.10;72.48;;;;;;;7.53;41.23;103104.01;713722;1167;115652;-74
2022/03/18 18:37:02;;;;;;;161.35;56.10;;;;;;;7.04;42.42;103107.14;713769;1174;115933;-75
2022/03/18 18:52:05;;;;;;;169.83;47.50;;;;;;;6.45;43.63;103105.24;713892;1177;115426;-75
2022/03/18 19:07:08;;;;;;;143.77;50.17;;;;;;;6.22;44.29;103109.29;714823;1176;115800;-76
2022/03/18 19:22:11;;;;;;;361.98;115.80;;;;;;;6.04;45.47;103110.58;713888;1174;115998;-75
2022/03/18 19:37:14;;;;;;;261.87;95.77;;;;;;;6.14;46.28;103127.72;721280;1174;115721;-74
2022/03/18 19:52:17;;;;;;;147.67;50.13;;;;;;;6.29;45.82;103128.24;715612;1176;116355;-75
2022/03/18 20:07:20;;;;;;;116.05;42.80;;;;;;;6.27;46.64;103137.88;714864;1177;115707;-75
2022/03/18 20:22:23;;;;;;;154.80;58.75;;;;;;;6.24;46.99;103132.71;714384;1174;115783;-75
2022/03/18 20:37:27;;;;;;;97.40;38.80;;;;;;;6.37;46.61;103144.55;713839;1175;115150;-75
2022/03/18 20:52:29;;;;;;;191.40;63.80;;;;;;;6.44;47.18;103125.27;713639;1177;115776;-75
2022/03/18 21:07:34;;;;;;;161.55;54.65;;;;;;;6.37;47.69;103134.12;714118;1174;115688;-75
2022/03/18 21:22:39;;;;;;;103.57;40.80;;;;;;;6.38;48.03;103125.41;713737;1175;115877;-75
2022/03/18 21:37:42;;;;;;;110.17;40.97;;;;;;;6.21;48.37;103127.58;713519;1177;115196;-76
2022/03/18 21:52:45;;;;;;;96.43;36.73;;;;;;;6.40;47.98;103126.23;713652;1177;115147;-74
2022/03/18 22:07:48;;;;;;;125.63;44.90;;;;;;;6.36;48.02;103127.21;713370;1174;115704;-75
2022/03/18 22:22:50;;;;;;;136.65;45.75;;;;;;;6.35;48.84;103120.28;713594;1175;115663;-74
2022/03/18 22:37:52;;;;;;;138.50;51.33;;;;;;;6.19;50.31;103134.57;713662;1177;116000;-74
2022/03/18 22:52:55;;;;;;;106.50;42.03;;;;;;;5.96;51.21;103122.91;714646;1177;115669;-75
2022/03/18 23:07:57;;;;;;;84.98;35.05;;;;;;;5.58;50.54;103125.51;713766;1177;115135;-75
2022/03/18 23:22:59;;;;;;;107.53;39.53;;;;;;;5.49;51.46;103123.10;713795;1175;114332;-74
2022/03/18 23:38:02;;;;;;;165.75;54.83;;;;;;;5.05;52.39;103111.84;713358;1177;114743;-76
2022/03/18 23:53:04;;;;;;;135.70;45.60;;;;;;;4.87;51.32;103120.84;713120;1176;114791;-74
